Andoya, Norway

12:12 AM CEST on July 28, 2016 (GMT +0200)
Andoya Air Base | | Change Station

Elev 43 ft 69.29 °N, 16.14 °E | Updated 22 minutes ago

Overcast
Overcast
55 °F
Feels Like 55 °F
N
2
Wind Variable Wind from Variable

Today
High -- | Low -- °F
--% Chance of Precip.
Yesterday
High -- | Low -- °F
Precip. -- in
Pressure 29.89 in
Visibility 6.2 miles
Clouds Overcast 4300 ft
Dew Point 50 °F
Humidity 82%
Rainfall 0.00 in
Snow Depth Not available.
2:14 AM 11:42 PM
Last Quarter, 39% visible
METAR ENAN 272150Z AUTO VRB02KT 9999NDV OVC043/// 13/10 Q1012
Pressure 29.89 in
Visibility 6.2 miles
Clouds Overcast 4300 ft
Dew Point 50 °F
Humidity 82%
Rainfall 0.00 in
Snow Depth Not available.
2:14 AM 11:42 PM
Last Quarter, 39% visible
METAR ENAN 272150Z AUTO VRB02KT 9999NDV OVC043/// 13/10 Q1012

10-Day Weather Forecast

×

Almanac

Astronomy

Jul. 28, 2016 Rise Set
Actual Time
Civil Twilight
Nautical Twilight
Astronomical Twilight
Moon
Length of Visible Light
Length of Day
Tomorrow will be .
, % of the Moon is Illuminated

Today's Extremes

Country Highs Country Lows

Community

WunderPhotos

Upload Photos

1,927,946 photos uploaded!

WunderBlog® & News

Nearby

Air Quality

  Air Quality AQ Index Pollutant
Not available.

Snow Depth

Station Depth Elevation

Earthquake Activity

City Distance Mag. Time & Date
Minimum magnitude displayed is 2.5.

Coastal Water Temperatures

Place Temperature

Stations

Nearby Weather Stations

Station Location Temp. Windchill Dew Point Humidity Wind Precip. Elev Updated Type